createdAt,value
2018-11-05T00:00:01.109Z,20
2018-11-05T00:00:52.254Z,20
2018-11-05T00:01:42.341Z,20
2018-11-05T00:02:32.628Z,20
2018-11-05T00:03:22.432Z,20
2018-11-05T00:04:12.232Z,20
2018-11-05T00:05:02.725Z,20
2018-11-05T00:05:53.152Z,20
2018-11-05T00:06:42.297Z,20
2018-11-05T00:24:58.241Z,19.9
2018-11-05T00:25:47.531Z,20
2018-11-05T00:26:38.131Z,20
2018-11-05T00:27:27.968Z,20
2018-11-05T00:28:18.578Z,20
2018-11-05T00:29:08.680Z,19.9
2018-11-05T00:29:58.411Z,20
2018-11-05T00:30:49.041Z,20
2018-11-05T00:31:37.628Z,20
2018-11-05T00:32:29.146Z,20
2018-11-05T00:33:17.882Z,19.9
2018-11-05T00:34:08.443Z,19.9
2018-11-05T00:34:58.098Z,19.9
2018-11-05T00:35:48.038Z,19.9
2018-11-05T00:36:38.480Z,19.9
2018-11-05T00:37:28.205Z,19.9
2018-11-05T00:38:19.061Z,19.9
2018-11-05T00:39:08.862Z,19.9
2018-11-05T00:39:59.418Z,19.9
2018-11-05T00:40:49.478Z,20
2018-11-05T00:41:39.112Z,19.9
2018-11-05T00:42:29.308Z,19.9
2018-11-05T00:43:19.647Z,19.9
2018-11-05T00:44:08.254Z,19.9
2018-11-05T00:44:59.767Z,19.9
2018-11-05T00:45:51.706Z,19.9
2018-11-05T00:46:39.720Z,19.9
2018-11-05T00:47:30.205Z,19.9
2018-11-05T00:48:19.409Z,19.9
2018-11-05T00:49:10.082Z,19.9
2018-11-05T00:50:00.379Z,19.9
2018-11-05T00:50:49.436Z,19.9
2018-11-05T00:51:40.689Z,19.9
2018-11-05T00:52:29.999Z,19.9
2018-11-05T00:53:19.127Z,19.9
2018-11-05T00:54:09.999Z,19.9
2018-11-05T00:54:59.732Z,19.9
2018-11-05T00:55:50.469Z,19.9
2018-11-05T00:56:40.359Z,19.9
2018-11-05T00:57:31.194Z,19.9
2018-11-05T00:58:20.266Z,19.9
2018-11-05T00:59:09.944Z,19.9
2018-11-05T01:00:00.579Z,19.9
2018-11-05T01:00:50.071Z,19.9
2018-11-05T01:01:40.556Z,19.9
2018-11-05T01:02:30.614Z,19.9
2018-11-05T01:03:20.333Z,19.9
2018-11-05T01:04:11.021Z,19.9
2018-11-05T01:05:01.572Z,19.9
2018-11-05T01:05:50.421Z,19.9
2018-11-05T01:06:41.097Z,19.9
2018-11-05T01:07:30.898Z,19.9
2018-11-05T01:08:21.166Z,19.9
2018-11-05T01:09:11.251Z,19.9
2018-11-05T01:10:15.969Z,19.9
2018-11-05T01:10:52.203Z,19.9
2018-11-05T01:11:41.688Z,19.9
2018-11-05T01:12:31.625Z,19.9
2018-11-05T01:13:21.551Z,19.9
2018-11-05T01:14:11.053Z,19.9
2018-11-05T01:15:02.046Z,19.9
2018-11-05T01:15:51.840Z,19.9
2018-11-05T01:16:42.344Z,19.9
2018-11-05T01:17:31.268Z,19.9
2018-11-05T01:18:22.302Z,19.9
2018-11-05T01:19:13.059Z,19.9
2018-11-05T01:20:01.999Z,19.9
2018-11-05T01:20:51.888Z,19.9
2018-11-05T01:21:42.442Z,19.9
2018-11-05T01:22:32.325Z,19.9
2018-11-05T01:23:22.386Z,19.9
2018-11-05T01:24:12.360Z,19.9
2018-11-05T01:25:01.858Z,19.9
2018-11-05T01:25:52.860Z,19.9
2018-11-05T01:26:42.042Z,19.9
2018-11-05T01:27:32.585Z,19.9
2018-11-05T01:28:22.657Z,19.9
2018-11-05T01:29:12.319Z,19.9
2018-11-05T01:30:02.588Z,19.9
2018-11-05T01:30:53.395Z,19.9
2018-11-05T01:31:43.463Z,19.9
2018-11-05T01:32:32.692Z,19.9
2018-11-05T01:33:22.567Z,19.9
2018-11-05T01:34:12.840Z,19.9
2018-11-05T01:35:02.337Z,19.9
2018-11-05T01:35:53.727Z,19.9
2018-11-05T01:36:42.974Z,19.9
2018-11-05T01:37:32.557Z,19.9
2018-11-05T01:38:23.927Z,19.9
2018-11-05T01:39:13.136Z,19.9
2018-11-05T01:40:03.779Z,19.9
2018-11-05T01:40:53.567Z,19.9
2018-11-05T01:41:42.767Z,19.9
2018-11-05T01:42:33.214Z,19.9
2018-11-05T01:43:23.008Z,19.9
2018-11-05T01:44:14.074Z,19.9
2018-11-05T01:45:02.900Z,19.9
2018-11-05T01:45:54.494Z,19.9
2018-11-05T01:46:43.761Z,19.9
2018-11-05T01:47:33.773Z,19.9
2018-11-05T01:48:23.644Z,19.9
2018-11-05T01:49:14.176Z,19.9
2018-11-05T01:50:03.559Z,19.9
2018-11-05T01:50:53.841Z,19.9
2018-11-05T01:51:44.951Z,19.9
2018-11-05T01:52:34.766Z,19.9
2018-11-05T01:53:24.277Z,19.9
2018-11-05T01:54:14.562Z,19.9
2018-11-05T01:55:03.822Z,19.9
2018-11-05T01:55:54.658Z,19.9
2018-11-05T01:56:45.018Z,19.9
2018-11-05T01:57:34.219Z,19.9
2018-11-05T01:58:25.686Z,19.9
2018-11-05T01:59:15.174Z,19.9
2018-11-05T02:00:04.695Z,19.9
2018-11-05T02:00:55.055Z,19.9
2018-11-05T02:01:45.617Z,19.9
2018-11-05T02:02:35.324Z,19.9
2018-11-05T02:03:25.040Z,19.9
2018-11-05T02:04:15.332Z,19.8
2018-11-05T02:05:05.165Z,19.8
2018-11-05T02:05:55.964Z,19.9
2018-11-05T02:06:45.527Z,19.8
2018-11-05T02:07:35.207Z,19.8
2018-11-05T02:08:25.063Z,19.9
2018-11-05T02:09:14.367Z,19.8
2018-11-05T02:10:05.944Z,19.9
2018-11-05T02:10:55.140Z,19.8
2018-11-05T02:11:46.343Z,19.9
2018-11-05T02:12:36.687Z,19.8
2018-11-05T02:13:27.311Z,19.8
2018-11-05T02:14:15.689Z,19.9
2018-11-05T02:15:06.655Z,19.9
2018-11-05T02:15:57.433Z,19.8
2018-11-05T02:16:46.453Z,19.8
2018-11-05T02:17:35.574Z,19.9
2018-11-05T02:18:25.539Z,19.8
2018-11-05T02:19:16.196Z,19.9
2018-11-05T02:20:06.571Z,19.8
2018-11-05T02:20:56.291Z,19.8
2018-11-05T02:21:45.366Z,19.8
2018-11-05T02:22:36.912Z,19.8
2018-11-05T02:23:26.191Z,19.8
2018-11-05T02:24:17.284Z,19.8
2018-11-05T02:25:06.616Z,19.8
2018-11-05T02:25:55.771Z,19.8
2018-11-05T02:26:47.273Z,19.8
2018-11-05T02:27:34.929Z,19.8
2018-11-05T02:28:26.599Z,19.8
2018-11-05T02:29:16.579Z,19.8
2018-11-05T02:30:06.655Z,19.8
2018-11-05T02:30:57.258Z,19.8
2018-11-05T02:31:47.371Z,19.8
2018-11-05T02:32:37.397Z,19.8
2018-11-05T02:33:26.359Z,19.8
2018-11-05T02:34:17.860Z,19.8
2018-11-05T02:35:06.761Z,19.8
2018-11-05T02:35:56.796Z,19.8
2018-11-05T02:36:47.733Z,19.8
2018-11-05T02:37:37.471Z,19.8
2018-11-05T02:38:27.248Z,19.8
2018-11-05T02:39:17.321Z,19.8
2018-11-05T02:40:07.687Z,19.8
2018-11-05T02:40:57.790Z,19.8
2018-11-05T02:41:47.705Z,19.8
2018-11-05T02:42:37.603Z,19.8
2018-11-05T02:43:28.365Z,19.8
2018-11-05T02:44:18.305Z,19.8
2018-11-05T02:45:07.732Z,19.8
2018-11-05T02:45:58.430Z,19.8
2018-11-05T02:46:47.577Z,19.8
2018-11-05T02:47:38.520Z,19.8
2018-11-05T02:48:28.076Z,19.8
2018-11-05T02:49:18.358Z,19.8
2018-11-05T02:50:08.542Z,19.8
2018-11-05T02:50:57.844Z,19.8
2018-11-05T02:51:48.067Z,19.8
2018-11-05T02:52:38.040Z,19.8
2018-11-05T02:53:29.217Z,19.8
2018-11-05T02:54:18.177Z,19.8
2018-11-05T02:55:08.324Z,19.8
2018-11-05T02:55:58.544Z,19.8
2018-11-05T02:56:49.307Z,19.8
2018-11-05T02:57:39.012Z,19.8
2018-11-05T02:58:29.026Z,19.8
2018-11-05T02:59:19.427Z,19.8
2018-11-05T03:00:08.573Z,19.8
2018-11-05T03:00:59.769Z,19.8
2018-11-05T03:01:48.326Z,19.8
2018-11-05T03:02:38.597Z,19.8
2018-11-05T03:03:30.026Z,19.8
2018-11-05T03:04:18.814Z,19.8
2018-11-05T03:05:09.741Z,19.8
2018-11-05T03:05:59.191Z,19.8
2018-11-05T03:06:49.488Z,19.8
2018-11-05T03:07:39.709Z,19.8
2018-11-05T03:08:29.949Z,19.8
2018-11-05T03:09:20.088Z,19.8
2018-11-05T03:10:10.194Z,19.8
2018-11-05T03:10:59.711Z,19.8
2018-11-05T03:11:50.079Z,19.8
2018-11-05T03:12:40.274Z,19.8
2018-11-05T03:13:30.350Z,19.8
2018-11-05T03:14:20.198Z,19.8
2018-11-05T03:15:10.797Z,19.8
2018-11-05T03:16:00.011Z,19.8
2018-11-05T03:16:50.189Z,19.8
2018-11-05T03:17:40.940Z,19.8
2018-11-05T03:18:31.078Z,19.8
2018-11-05T03:19:20.588Z,19.8
2018-11-05T03:20:10.816Z,19.8
2018-11-05T03:21:01.313Z,19.8
2018-11-05T03:21:51.608Z,19.8
2018-11-05T03:22:40.422Z,19.8
2018-11-05T03:23:31.588Z,19.8
2018-11-05T03:24:21.065Z,19.8
2018-11-05T03:25:10.877Z,19.8
2018-11-05T03:26:01.619Z,19.8
2018-11-05T03:26:51.070Z,19.8
2018-11-05T03:27:41.641Z,19.8
2018-11-05T03:28:32.262Z,19.8
2018-11-05T03:29:21.188Z,19.8
2018-11-05T03:30:12.558Z,19.8
2018-11-05T03:31:01.878Z,19.8
2018-11-05T03:31:51.908Z,19.8
2018-11-05T03:32:42.163Z,19.8
2018-11-05T03:33:31.503Z,19.8
2018-11-05T03:34:21.560Z,19.8
2018-11-05T03:35:11.660Z,19.8
2018-11-05T03:36:03.753Z,19.8
2018-11-05T03:36:52.775Z,19.8
2018-11-05T03:37:42.425Z,19.8
2018-11-05T03:38:31.966Z,19.8
2018-11-05T03:39:22.565Z,19.8
2018-11-05T03:40:12.586Z,19.8
2018-11-05T03:41:01.740Z,19.8
2018-11-05T03:41:52.350Z,19.8
2018-11-05T03:42:42.270Z,19.8
2018-11-05T03:43:32.561Z,19.8
2018-11-05T03:44:22.541Z,19.8
2018-11-05T03:45:12.875Z,19.8
2018-11-05T03:46:03.280Z,19.8
2018-11-05T03:46:53.344Z,19.8
2018-11-05T03:47:42.225Z,19.8
2018-11-05T03:48:32.895Z,19.8
2018-11-05T03:49:22.855Z,19.8
2018-11-05T03:50:13.286Z,19.8
2018-11-05T03:51:02.522Z,19.8
2018-11-05T03:51:52.584Z,19.8
2018-11-05T03:52:42.878Z,19.8
2018-11-05T03:53:32.292Z,19.8
2018-11-05T03:54:23.044Z,19.8
2018-11-05T03:55:13.377Z,19.8
2018-11-05T03:56:05.747Z,19.8
2018-11-05T03:56:53.789Z,19.8
2018-11-05T03:57:43.826Z,19.8
2018-11-05T03:58:33.124Z,19.8
2018-11-05T03:59:23.940Z,19.8
2018-11-05T04:00:14.846Z,19.8
2018-11-05T04:01:04.089Z,19.8
2018-11-05T04:01:53.896Z,19.8
2018-11-05T04:02:43.935Z,19.8
2018-11-05T04:03:34.060Z,19.8
2018-11-05T04:04:24.311Z,19.8
2018-11-05T04:05:14.629Z,19.8
2018-11-05T04:06:04.691Z,19.8
2018-11-05T04:06:55.354Z,19.8
2018-11-05T04:07:43.735Z,19.8
2018-11-05T04:08:34.501Z,19.9
2018-11-05T04:09:23.548Z,19.9
2018-11-05T04:10:13.308Z,19.9
2018-11-05T04:11:05.066Z,19.9
2018-11-05T04:11:53.821Z,19.8
2018-11-05T04:12:45.198Z,19.8
2018-11-05T04:13:34.586Z,19.8
2018-11-05T04:14:24.860Z,19.8
2018-11-05T04:15:15.847Z,19.9
2018-11-05T04:16:06.078Z,19.9
2018-11-05T04:16:55.555Z,19.8
2018-11-05T04:17:45.068Z,19.9
2018-11-05T04:18:33.755Z,19.9
2018-11-05T04:19:24.543Z,19.9
2018-11-05T04:20:16.018Z,19.9
2018-11-05T04:21:05.243Z,19.9
2018-11-05T04:21:54.835Z,19.9
2018-11-05T04:22:45.678Z,19.9
2018-11-05T04:23:36.005Z,19.9
2018-11-05T04:24:25.492Z,19.9
2018-11-05T04:25:15.050Z,19.9
2018-11-05T04:26:05.367Z,19.9
2018-11-05T04:26:55.397Z,19.9
2018-11-05T04:27:47.804Z,19.9
2018-11-05T04:28:36.362Z,19.9
2018-11-05T04:29:26.452Z,19.9
2018-11-05T04:30:16.172Z,19.9
2018-11-05T04:31:06.074Z,19.9
2018-11-05T04:31:54.977Z,19.9
2018-11-05T04:32:46.470Z,19.9
2018-11-05T04:33:36.252Z,19.9
2018-11-05T04:34:26.211Z,19.9
2018-11-05T04:35:16.019Z,19.9
2018-11-05T04:36:06.332Z,19.9
2018-11-05T04:54:10.395Z,19.9
2018-11-05T04:55:00.171Z,19.9
2018-11-05T04:55:50.050Z,19.9
2018-11-05T04:56:39.819Z,19.9
2018-11-05T04:57:29.819Z,19.9
2018-11-05T04:58:20.391Z,19.9
2018-11-05T04:59:10.367Z,19.9
2018-11-05T05:00:00.008Z,19.9
2018-11-05T05:00:50.284Z,19.9
2018-11-05T05:01:40.069Z,19.9
2018-11-05T05:02:30.138Z,19.9
2018-11-05T05:03:20.783Z,19.9
2018-11-05T05:04:10.775Z,19.9
2018-11-05T05:05:00.895Z,19.9
2018-11-05T05:05:51.010Z,19.9
2018-11-05T05:06:40.417Z,19.9
2018-11-05T05:07:30.110Z,19.9
2018-11-05T05:08:20.180Z,19.9
2018-11-05T05:09:10.675Z,19.9
2018-11-05T05:10:00.996Z,19.9
2018-11-05T05:10:50.105Z,19.9
2018-11-05T05:11:40.506Z,19.9
2018-11-05T05:12:31.575Z,19.9
2018-11-05T05:13:22.311Z,19.9
2018-11-05T05:14:11.107Z,19.9
2018-11-05T05:15:01.047Z,19.9
2018-11-05T05:15:51.096Z,19.9
2018-11-05T05:16:41.451Z,19.9
2018-11-05T05:17:31.823Z,19.9
2018-11-05T05:18:21.810Z,19.9
2018-11-05T05:19:12.437Z,19.9
2018-11-05T05:20:01.662Z,19.9
2018-11-05T05:20:51.694Z,19.9
2018-11-05T05:21:41.879Z,19.9
2018-11-05T05:22:32.385Z,19.9
2018-11-05T05:23:21.541Z,19.9
2018-11-05T05:24:11.956Z,19.9
2018-11-05T05:25:02.842Z,19.9
2018-11-05T05:25:51.796Z,19.9
2018-11-05T05:26:42.144Z,19.9
2018-11-05T05:27:32.021Z,19.9
2018-11-05T05:28:21.993Z,19.9
2018-11-05T05:29:12.096Z,19.9
2018-11-05T05:30:01.719Z,19.9
2018-11-05T05:30:52.491Z,19.9
2018-11-05T05:31:42.266Z,19.9
2018-11-05T05:32:32.622Z,19.9
2018-11-05T05:33:21.832Z,19.9
2018-11-05T05:34:12.858Z,19.9
2018-11-05T05:35:03.074Z,19.9
2018-11-05T05:35:52.551Z,19.9
2018-11-05T05:36:42.508Z,19.9
2018-11-05T05:37:32.216Z,19.9
2018-11-05T05:38:23.028Z,19.9
2018-11-05T05:39:13.676Z,19.9
2018-11-05T05:40:03.218Z,19.9
2018-11-05T05:40:54.441Z,19.9
2018-11-05T05:41:43.016Z,19.9
2018-11-05T05:42:33.327Z,19.9
2018-11-05T05:43:23.529Z,19.9
2018-11-05T05:44:14.025Z,19.9
2018-11-05T05:45:04.043Z,19.9
2018-11-05T05:45:53.252Z,19.9
2018-11-05T05:46:43.330Z,19.9
2018-11-05T05:47:33.662Z,19.9
2018-11-05T05:48:24.047Z,19.9
2018-11-05T05:49:13.938Z,19.9
2018-11-05T05:50:04.893Z,19.9
2018-11-05T05:50:53.921Z,19.9
2018-11-05T05:51:43.989Z,19.9
2018-11-05T05:52:34.357Z,19.9
2018-11-05T05:53:24.399Z,19.9
2018-11-05T05:54:13.792Z,19.9
2018-11-05T05:55:04.767Z,19.9
2018-11-05T05:55:54.852Z,19.9
2018-11-05T05:56:43.952Z,19.9
2018-11-05T05:57:34.127Z,19.9
2018-11-05T05:58:24.844Z,19.9
2018-11-05T05:59:13.755Z,19.9
2018-11-05T06:00:06.876Z,19.9
2018-11-05T06:00:54.136Z,19.9
2018-11-05T06:01:44.411Z,19.9
2018-11-05T06:02:34.376Z,19.9
2018-11-05T06:03:24.539Z,19.9
2018-11-05T06:04:15.001Z,19.9
2018-11-05T06:05:04.596Z,19.9
2018-11-05T06:05:55.099Z,19.9
2018-11-05T06:06:45.384Z,19.9
2018-11-05T06:07:35.144Z,19.9
2018-11-05T06:08:24.524Z,19.9
2018-11-05T06:09:14.935Z,19.9
2018-11-05T06:10:05.388Z,19.9
2018-11-05T06:10:55.373Z,19.9
2018-11-05T06:11:44.676Z,19.9
2018-11-05T06:12:36.065Z,19.9
2018-11-05T06:13:25.096Z,19.9
2018-11-05T06:14:15.613Z,19.9
2018-11-05T06:15:05.373Z,19.9
2018-11-05T06:15:57.672Z,19.9
2018-11-05T06:16:44.680Z,19.9
2018-11-05T06:17:35.575Z,19.9
2018-11-05T06:18:25.746Z,19.9
2018-11-05T06:19:15.576Z,19.9
2018-11-05T06:20:05.948Z,19.9
2018-11-05T06:20:56.291Z,19.9
2018-11-05T06:21:47.952Z,19.9
2018-11-05T06:22:35.640Z,19.9
2018-11-05T06:23:25.445Z,19.9
2018-11-05T06:24:15.485Z,19.9
2018-11-05T06:25:06.103Z,19.9
2018-11-05T06:25:56.961Z,19.9
2018-11-05T06:26:45.554Z,19.9
2018-11-05T06:27:36.375Z,19.9
2018-11-05T06:28:26.973Z,19.9
2018-11-05T06:29:16.677Z,19.9
2018-11-05T06:30:07.030Z,19.9
2018-11-05T06:30:56.628Z,19.9
2018-11-05T06:31:47.225Z,19.9
2018-11-05T06:32:37.226Z,19.9
2018-11-05T06:33:27.033Z,19.9
2018-11-05T06:34:16.485Z,19.9
2018-11-05T06:35:07.081Z,19.9
2018-11-05T06:35:56.794Z,19.9
2018-11-05T06:36:48.005Z,19.9
2018-11-05T06:37:37.102Z,19.9
2018-11-05T06:38:27.140Z,19.9
2018-11-05T06:39:17.459Z,19.9
2018-11-05T06:40:06.607Z,19.9
2018-11-05T06:40:57.905Z,19.9
2018-11-05T06:41:47.970Z,20.6
2018-11-05T06:42:37.447Z,21.1
2018-11-05T06:43:27.731Z,21.4
2018-11-05T06:44:19.095Z,24
2018-11-05T06:45:07.981Z,25.5
2018-11-05T06:45:57.811Z,25.8
2018-11-05T06:46:47.739Z,25.8
2018-11-05T06:47:38.119Z,25.3
2018-11-05T06:48:27.784Z,24.6
2018-11-05T06:49:17.696Z,24.3
2018-11-05T06:50:07.929Z,24.1
2018-11-05T06:50:58.511Z,23.9
2018-11-05T06:51:47.851Z,23.9
2018-11-05T06:52:38.322Z,23.9
2018-11-05T06:53:28.099Z,23.9
2018-11-05T06:54:18.001Z,23.8
2018-11-05T06:55:08.608Z,23.8
2018-11-05T06:55:59.253Z,23.8
2018-11-05T06:56:48.119Z,23.7
2018-11-05T06:57:39.302Z,23.6
2018-11-05T06:58:29.473Z,23.6
2018-11-05T06:59:18.171Z,23.5
2018-11-05T07:00:08.243Z,23.4
2018-11-05T07:00:58.721Z,23.4
2018-11-05T07:01:49.354Z,23.4
2018-11-05T07:02:38.592Z,23.3
2018-11-05T07:03:28.621Z,23.3
2018-11-05T07:04:18.744Z,23.2
2018-11-05T07:05:08.252Z,23.1
2018-11-05T07:06:01.534Z,23.2
2018-11-05T07:06:48.874Z,24.6
2018-11-05T07:07:39.646Z,26.6
2018-11-05T07:08:29.074Z,27.6
2018-11-05T07:09:19.054Z,27.9
2018-11-05T07:10:09.459Z,27.6
2018-11-05T07:10:58.958Z,27.3
2018-11-05T07:11:49.606Z,27
2018-11-05T07:12:39.891Z,26.9
2018-11-05T07:13:30.318Z,27.1
2018-11-05T07:14:19.773Z,27.4
2018-11-05T07:15:09.833Z,27.8
2018-11-05T07:15:59.218Z,27.9
2018-11-05T07:16:50.444Z,28.1
2018-11-05T07:17:40.163Z,28.1
2018-11-05T07:18:32.546Z,28.2
2018-11-05T07:19:22.119Z,28.3
2018-11-05T07:20:09.632Z,28.4
2018-11-05T07:20:59.691Z,28.6
2018-11-05T07:21:48.931Z,28.8
2018-11-05T07:22:40.290Z,29
2018-11-05T07:23:30.725Z,29.2
2018-11-05T07:24:20.463Z,29.3
2018-11-05T07:25:10.459Z,29.5
2018-11-05T07:25:59.645Z,29.6
2018-11-05T07:26:50.623Z,29.8
2018-11-05T07:27:42.364Z,29.9
2018-11-05T07:28:30.761Z,30.1
2018-11-05T07:29:20.913Z,30.3
2018-11-05T07:30:11.148Z,30.4
2018-11-05T07:31:00.863Z,30.6
2018-11-05T07:31:50.538Z,30.8
2018-11-05T07:32:40.398Z,30.9
2018-11-05T07:33:33.115Z,31.1
2018-11-05T07:34:22.755Z,31.3
2018-11-05T07:35:10.308Z,31.4
2018-11-05T07:36:00.763Z,31.6
2018-11-05T07:36:51.590Z,31.8
2018-11-05T07:37:41.310Z,31.9
2018-11-05T07:38:31.787Z,32.1
2018-11-05T07:39:21.283Z,32.3
2018-11-05T07:40:11.842Z,32.5
2018-11-05T07:41:01.418Z,32.6
2018-11-05T07:41:51.090Z,32.8
2018-11-05T07:42:42.009Z,32.9
2018-11-05T07:43:32.945Z,33.1
2018-11-05T07:44:21.885Z,33.2
2018-11-05T07:45:12.190Z,33.3
2018-11-05T07:46:02.525Z,33.4
2018-11-05T07:46:51.432Z,33.6
2018-11-05T07:47:41.670Z,33.8
2018-11-05T07:48:31.832Z,33.9
2018-11-05T07:49:21.895Z,34
2018-11-05T07:50:13.616Z,34.2
2018-11-05T07:51:02.864Z,34.3
2018-11-05T07:51:52.187Z,34.4
2018-11-05T07:52:42.997Z,34.6
2018-11-05T07:53:32.078Z,34.7
2018-11-05T07:54:23.119Z,34.8
2018-11-05T07:55:12.359Z,34.9
2018-11-05T07:56:03.008Z,35.1
2018-11-05T07:56:54.853Z,35.2
2018-11-05T07:57:43.061Z,35.3
2018-11-05T07:58:33.224Z,35.4
2018-11-05T07:59:21.932Z,35.6
2018-11-05T08:00:13.571Z,35.8
2018-11-05T08:01:03.084Z,35.9
2018-11-05T08:01:53.128Z,36.1
2018-11-05T08:02:43.884Z,36.2
2018-11-05T08:03:32.670Z,36.3
2018-11-05T08:04:24.241Z,36.4
2018-11-05T08:05:13.587Z,36.6
2018-11-05T08:06:02.717Z,36.8
2018-11-05T08:06:53.613Z,36.9
2018-11-05T08:07:44.156Z,37.1
2018-11-05T08:08:35.555Z,37.2
2018-11-05T08:09:24.473Z,37.3
2018-11-05T08:10:14.008Z,37.5
2018-11-05T08:11:04.463Z,37.6
2018-11-05T08:11:53.943Z,37.8
2018-11-05T08:12:44.208Z,37.9
2018-11-05T08:13:33.355Z,38.1
2018-11-05T08:14:26.042Z,38.2
2018-11-05T08:15:13.881Z,38.3
2018-11-05T08:16:04.185Z,38.4
2018-11-05T08:16:53.910Z,38.6
2018-11-05T08:17:43.377Z,38.8
2018-11-05T08:18:34.563Z,38.9
2018-11-05T08:19:24.977Z,39
2018-11-05T08:20:14.771Z,39.1
2018-11-05T08:21:05.071Z,39.3
2018-11-05T08:21:54.532Z,39.4
2018-11-05T08:22:43.747Z,39.6
2018-11-05T08:23:35.283Z,39.8
2018-11-05T08:24:24.047Z,39.9
2018-11-05T08:25:14.528Z,40
2018-11-05T08:26:05.988Z,40.2
2018-11-05T08:26:55.772Z,40.3
2018-11-05T08:27:45.569Z,40.4
2018-11-05T08:28:35.045Z,40.5
2018-11-05T08:29:25.079Z,40.6
2018-11-05T08:30:14.767Z,40.8
2018-11-05T08:31:05.487Z,40.9
2018-11-05T08:31:55.829Z,41
2018-11-05T08:32:45.711Z,41.1
2018-11-05T08:33:34.893Z,41.3
2018-11-05T08:34:25.387Z,41.3
2018-11-05T08:35:15.054Z,41.4
2018-11-05T08:36:05.475Z,41.5
2018-11-05T08:36:55.916Z,41.7
2018-11-05T08:37:45.631Z,41.8
2018-11-05T08:38:36.035Z,41.9
2018-11-05T08:39:26.214Z,42
2018-11-05T08:40:17.901Z,42.1
2018-11-05T08:41:06.334Z,42.3
2018-11-05T08:41:56.044Z,42.3
2018-11-05T08:42:46.352Z,42.4
2018-11-05T08:43:35.954Z,42.5
2018-11-05T08:44:25.530Z,42.6
2018-11-05T08:45:16.485Z,42.8
2018-11-05T08:46:06.118Z,42.9
2018-11-05T08:46:57.447Z,43
2018-11-05T08:47:46.059Z,43.1
2018-11-05T08:48:36.218Z,43.3
2018-11-05T08:49:26.883Z,43.4
2018-11-05T08:50:18.636Z,43.4
2018-11-05T08:51:11.758Z,43.6
2018-11-05T08:51:57.038Z,43.7
2018-11-05T09:08:39.785Z,45.6
2018-11-05T09:09:30.255Z,45.8
2018-11-05T09:10:22.280Z,45.9
2018-11-05T09:11:12.462Z,46
2018-11-05T09:12:00.354Z,46.1
2018-11-05T09:12:50.892Z,46.2
2018-11-05T09:13:41.114Z,46.3
2018-11-05T09:14:30.200Z,46.3
2018-11-05T09:15:20.731Z,46.4
2018-11-05T09:16:11.720Z,46.5
2018-11-05T09:17:01.162Z,46.6
2018-11-05T09:17:50.604Z,46.6
2018-11-05T09:18:40.823Z,46.8
2018-11-05T09:19:30.746Z,46.9
2018-11-05T09:20:21.436Z,47
2018-11-05T09:21:11.082Z,47.1
2018-11-05T09:22:00.804Z,47.3
2018-11-05T09:22:51.284Z,47.3
2018-11-05T09:23:41.389Z,47.4
2018-11-05T09:24:31.287Z,47.5
2018-11-05T09:25:21.808Z,47.6
2018-11-05T09:26:10.590Z,47.7
2018-11-05T09:27:01.089Z,47.7
2018-11-05T09:27:52.313Z,47.9
2018-11-05T09:28:42.079Z,47.9
2018-11-05T09:29:31.379Z,48
2018-11-05T09:30:21.643Z,48.1
2018-11-05T09:31:12.007Z,48.3
2018-11-05T09:32:02.291Z,48.3
2018-11-05T09:32:52.101Z,48.4
2018-11-05T09:33:41.018Z,48.5
2018-11-05T09:34:31.896Z,48.7
2018-11-05T09:35:21.984Z,48.8
2018-11-05T09:36:12.364Z,48.9
2018-11-05T09:37:02.196Z,49
2018-11-05T09:37:52.107Z,49.1
2018-11-05T09:38:42.544Z,49.1
2018-11-05T09:39:31.663Z,49.2
2018-11-05T09:40:21.856Z,49.3
2018-11-05T09:41:12.265Z,49.4
2018-11-05T09:42:02.951Z,49.5
2018-11-05T09:42:54.917Z,49.6
2018-11-05T09:43:41.966Z,49.6
2018-11-05T09:44:32.871Z,49.8
2018-11-05T09:45:22.613Z,49.9
2018-11-05T09:46:12.768Z,49.9
2018-11-05T09:47:02.480Z,50
2018-11-05T09:47:53.683Z,50.1
2018-11-05T09:48:43.156Z,50.2
2018-11-05T09:49:33.738Z,50.3
2018-11-05T09:50:23.562Z,50.4
2018-11-05T09:51:13.333Z,50.4
2018-11-05T09:52:02.963Z,50.5
2018-11-05T09:52:53.462Z,50.6
2018-11-05T09:53:43.459Z,50.7
2018-11-05T09:54:33.695Z,50.8
2018-11-05T09:55:24.344Z,50.9
2018-11-05T09:56:14.090Z,50.9
2018-11-05T09:57:03.878Z,51
2018-11-05T09:57:53.604Z,51.1
2018-11-05T09:58:44.183Z,51.2
2018-11-05T09:59:34.530Z,51.3
2018-11-05T10:00:24.099Z,51.4
2018-11-05T10:01:13.577Z,51.4
2018-11-05T10:02:03.578Z,51.5
2018-11-05T10:02:56.425Z,51.6
2018-11-05T10:03:47.329Z,51.8
2018-11-05T10:04:37.800Z,51.8
2018-11-05T10:05:24.640Z,51.9
2018-11-05T10:07:05.143Z,52
2018-11-05T10:07:54.851Z,52.1
2018-11-05T10:08:44.679Z,52.3
2018-11-05T10:09:35.559Z,52.3
2018-11-05T10:11:14.837Z,52.4
2018-11-05T10:12:05.739Z,52.6
2018-11-05T10:12:54.953Z,52.6
2018-11-05T10:13:45.513Z,52.7
2018-11-05T10:14:34.583Z,52.8
2018-11-05T10:15:25.955Z,52.9
2018-11-05T10:16:14.978Z,53
2018-11-05T10:17:05.414Z,53.1
2018-11-05T10:17:55.731Z,53.1
2018-11-05T10:18:44.898Z,53.2
2018-11-05T10:19:35.118Z,53.3
2018-11-05T10:20:24.687Z,53.4
2018-11-05T10:21:15.366Z,53.4
2018-11-05T10:22:05.053Z,53.5
2018-11-05T10:22:55.036Z,53.6
2018-11-05T10:23:45.502Z,53.7
2018-11-05T10:24:36.539Z,53.8
2018-11-05T10:25:25.265Z,53.8
2018-11-05T10:26:15.458Z,53.9
2018-11-05T10:27:05.962Z,54
2018-11-05T10:27:55.548Z,54.1
2018-11-05T10:28:44.612Z,54.2
2018-11-05T10:29:35.663Z,54.3
2018-11-05T10:30:26.490Z,54.3
2018-11-05T10:31:15.850Z,54.4
2018-11-05T10:32:06.368Z,54.4
2018-11-05T10:32:56.705Z,54.4
2018-11-05T10:33:46.658Z,54.6
2018-11-05T10:34:36.127Z,54.6
2018-11-05T10:35:25.092Z,54.7
2018-11-05T10:36:15.893Z,54.8
2018-11-05T10:37:06.437Z,54.8
2018-11-05T10:37:55.715Z,54.9
2018-11-05T10:38:46.607Z,54.9
2018-11-05T10:39:36.282Z,55
2018-11-05T10:40:27.562Z,55.1
2018-11-05T10:41:16.796Z,55.2
2018-11-05T10:42:06.863Z,55.3
2018-11-05T10:42:56.307Z,55.4
2018-11-05T10:43:47.727Z,55.4
2018-11-05T10:44:36.997Z,55.4
2018-11-05T10:45:27.169Z,55.6
2018-11-05T10:46:18.653Z,55.6
2018-11-05T10:47:06.826Z,55.7
2018-11-05T10:47:57.899Z,55.8
2018-11-05T10:48:47.044Z,55.8
2018-11-05T10:49:37.912Z,55.9
2018-11-05T10:50:28.866Z,55.9
2018-11-05T10:51:18.858Z,56
2018-11-05T10:52:12.092Z,56.1
2018-11-05T10:52:58.129Z,56.1
2018-11-05T10:53:48.551Z,56.2
2018-11-05T10:54:38.574Z,56.3
2018-11-05T10:55:28.122Z,56.3
2018-11-05T10:56:17.211Z,56.4
2018-11-05T10:57:08.811Z,56.4
2018-11-05T10:57:59.218Z,56.5
2018-11-05T10:58:48.339Z,56.6
2018-11-05T10:59:38.640Z,56.6
2018-11-05T11:00:27.863Z,56.7
2018-11-05T11:01:18.693Z,56.8
2018-11-05T11:02:08.778Z,56.9
2018-11-05T11:02:59.178Z,56.9
2018-11-05T11:03:49.304Z,57
2018-11-05T11:04:38.383Z,57.1
2018-11-05T11:05:28.263Z,57.1
2018-11-05T11:06:19.133Z,57.1
2018-11-05T11:07:09.148Z,57.2
2018-11-05T11:07:58.170Z,57.3
2018-11-05T11:08:49.031Z,57.3
2018-11-05T11:09:40.205Z,57.4
2018-11-05T11:10:29.082Z,57.4
2018-11-05T11:11:18.484Z,57.5
2018-11-05T11:12:08.865Z,57.6
2018-11-05T11:12:59.063Z,57.6
2018-11-05T11:13:49.612Z,57.6
2018-11-05T11:14:39.659Z,57.7
2018-11-05T11:16:19.570Z,57.8
2018-11-05T11:17:09.642Z,57.9
2018-11-05T11:17:59.384Z,57.9
2018-11-05T11:18:50.055Z,57.9
2018-11-05T11:19:38.449Z,57.9
2018-11-05T11:20:30.187Z,58.1
2018-11-05T11:21:20.187Z,58.1
2018-11-05T11:22:10.074Z,58.1
2018-11-05T11:22:58.687Z,58.2
2018-11-05T11:23:50.605Z,58.3
2018-11-05T11:24:40.421Z,58.3
2018-11-05T11:25:29.697Z,58.3
2018-11-05T11:26:19.848Z,58.4
2018-11-05T11:27:09.959Z,58.4
2018-11-05T11:28:04.368Z,58.5
2018-11-05T11:29:40.601Z,58.6
2018-11-05T11:30:30.582Z,58.6
2018-11-05T11:31:20.346Z,58.7
2018-11-05T11:32:10.727Z,58.8
2018-11-05T11:32:59.869Z,58.8
2018-11-05T11:33:50.545Z,58.8
2018-11-05T11:34:40.414Z,58.9
2018-11-05T11:35:30.404Z,58.9
2018-11-05T11:36:22.175Z,59
2018-11-05T11:37:11.160Z,59
2018-11-05T11:38:00.605Z,59.1
2018-11-05T11:38:51.587Z,59.1
2018-11-05T11:39:41.296Z,59.1
2018-11-05T11:40:31.873Z,59.1
2018-11-05T11:41:21.951Z,59.2
2018-11-05T11:42:10.767Z,59.2
2018-11-05T11:43:01.584Z,59.3
2018-11-05T11:43:51.860Z,59.3
2018-11-05T11:44:42.000Z,59.3
2018-11-05T11:45:31.713Z,59.4
2018-11-05T11:46:20.948Z,59.4
2018-11-05T11:47:11.889Z,59.4
2018-11-05T11:48:02.523Z,59.4
2018-11-05T11:48:52.500Z,59.5
2018-11-05T11:49:41.791Z,59.5
2018-11-05T11:50:32.375Z,59.6
2018-11-05T11:51:22.103Z,59.6
2018-11-05T11:52:12.398Z,59.6
2018-11-05T11:53:02.530Z,59.6
2018-11-05T11:53:52.316Z,59.7
2018-11-05T11:54:42.955Z,59.8
2018-11-05T11:55:32.223Z,59.8
2018-11-05T11:56:22.124Z,59.8
2018-11-05T11:57:12.774Z,59.8
2018-11-05T11:58:02.689Z,59.9
2018-11-05T11:58:53.019Z,59.9
2018-11-05T11:59:43.207Z,59.9
2018-11-05T12:00:32.372Z,59.9
2018-11-05T12:01:23.200Z,60
2018-11-05T12:02:14.120Z,60